Flight Track Log - Related Links

Times and Time Zones

All times are in EDT time to prevent confusion due to time zone crossing. See the AAY841 flight status page for this flight to view local times or setup timezone preferences in your user account.

Time Position Orientation Groundspeed Altitude Reporting Facility
EDT Latitude Longitude Course Direction KTS MPH feet Rate Location/Type
Sun 10:42:20 AM 36.3983 -82.4472 171° South 197 227 4,600  Level Atlanta Center
Sun 10:44:20 AM 36.2500 -82.4192 171° South 270 311 10,500 2,567 Climbing Atlanta Center
Sun 10:45:20 AM 36.1600 -82.4056 173° South 304 350 12,300 2,250 Climbing Atlanta Center
Sun 10:46:20 AM 36.0639 -82.3872 171° South 345 397 15,000 2,800 Climbing Atlanta Center
Sun 10:47:20 AM 35.9592 -82.3686 172° South 364 419 17,900 2,500 Climbing Atlanta Center
Sun 10:48:20 AM 35.8569 -82.3503 172° South 374 430 20,000 2,150 Climbing Atlanta Center
Sun 10:49:20 AM 35.7503 -82.3294 171° South 374 430 22,200 2,100 Climbing Atlanta Center
Sun 10:50:20 AM 35.6436 -82.3139 173° South 385 443 24,200 1,459 Climbing Atlanta Center
Sun 10:56:07 AM 34.8707 -82.2218 177° South 471 542 32,100 1,366 Climbing FlightAware ADS-B (KDZJ)
Sun 10:56:51 AM 34.7737 -82.2165 178° South 470 541 33,100 1,407 Climbing FlightAware ADS-B (KDZJ)
Sun 10:57:28 AM 34.6896 -82.2121 178° South 470 541 34,000 1,200 Climbing FlightAware ADS-B (KDZJ)
Sun 10:58:06 AM 34.6060 -82.2079 178° South 479 551 34,600 951 Climbing FlightAware ADS-B (KDZJ)
Sun 10:58:50 AM 34.5088 -82.2029 178° South 483 556 35,300 649 Climbing FlightAware ADS-B (KDZJ)
Sun 10:59:20 AM 34.5006 -82.2039 178° South 483 556 35,400 733 Climbing Atlanta Center
Sun 11:00:20 AM 34.3689 -82.1967 177° South 478 550 36,400 950 Climbing Atlanta Center
Sun 11:01:20 AM 34.2333 -82.1894 177° South 478 550 37,300 800 Climbing Atlanta Center
Sun 11:02:20 AM 34.0994 -82.1825 178° South 478 550 38,000 350 Climbing Atlanta Center
Sun 11:03:20 AM 33.9678 -82.1728 176° South 478 550 38,000  Level Atlanta Center
Sun 11:04:20 AM 33.8342 -82.1656 177° South 478 550 38,000  Level Atlanta Center
Sun 11:05:20 AM 33.6986 -82.1611 178° South 484 557 38,000 50 Level Atlanta Center
Sun 11:06:20 AM 33.5819 -82.1811 188° South 479 551 38,100  Climbing Atlanta Center
Sun 11:07:20 AM 33.4486 -82.2014 187° South 479 551 38,000 -50 Descending Atlanta Center
Sun 11:08:20 AM 33.3217 -82.2239 188° South 479 551 38,000  Level Atlanta Center
Sun 11:09:20 AM 33.1906 -82.2467 188° South 479 551 38,000  Level Atlanta Center
Sun 11:10:20 AM 33.0592 -82.2692 188° South 484 557 38,000  Level Atlanta Center
Sun 11:12:50 AM 32.7372 -82.3172 187° South 478 550 38,000  Level Jacksonville Center
Sun 11:13:50 AM 32.6058 -82.3403 188° South 478 550 38,000  Level Jacksonville Center
Sun 11:14:50 AM 32.4806 -82.3581 187° South 478 550 38,000  Level Jacksonville Center
Sun 11:15:50 AM 32.3575 -82.3811 189° South 464 534 38,000  Level Jacksonville Center
Sun 11:16:50 AM 32.2303 -82.3989 187° South 464 534 38,000  Level Jacksonville Center
Sun 11:17:50 AM 32.1008 -82.4192 188° South 464 534 38,000  Level Jacksonville Center
Sun 11:18:50 AM 31.9736 -82.4394 188° South 464 534 38,000  Level Jacksonville Center
Sun 11:19:50 AM 31.8506 -82.4572 187° South 464 534 38,000  Level Jacksonville Center
Sun 11:20:50 AM 31.7211 -82.4700 185° South 464 534 38,000  Level Jacksonville Center
Sun 11:21:51 AM 31.5875 -82.4633 178° South 464 534 38,000  Level Jacksonville Center
Sun 11:22:51 AM 31.4622 -82.4542 176° South 464 534 38,000  Level Jacksonville Center
Sun 11:28:29 AM 30.7081 -82.4166 178° South 475 547 38,000  Level FlightAware ADS-B
Sun 11:29:31 AM 30.5728 -82.4095 178° South 475 547 38,000  Level FlightAware ADS-B
Sun 11:30:06 AM 30.4996 -82.4058 178° South 475 547 38,000 -364 Level FlightAware ADS-B
Sun 11:30:37 AM 30.4260 -82.4018 177° South 472 543 37,600 -795 Descending FlightAware ADS-B
Sun 11:31:29 AM 30.3242 -82.3966 178° South 470 541 36,900 -913 Descending FlightAware ADS-B
Sun 11:32:09 AM 30.2262 -82.3916 177° South 472 543 36,200 -1,020 Descending FlightAware ADS-B
Sun 11:33:09 AM 30.0951 -82.3849 177° South 471 542 35,200 -1,109 Descending FlightAware ADS-B
Sun 11:33:41 AM 30.0379 -82.3818 178° South 475 547 34,500 -1,839 Descending FlightAware ADS-B
Sun 11:34:11 AM 29.9601 -82.3777 177° South 471 542 33,300 -2,262 Descending FlightAware ADS-B
Sun 11:34:42 AM 29.8948 -82.3742 177° South 464 534 32,200 -2,066 Descending FlightAware ADS-B
Sun 11:35:12 AM 29.8299 -82.3708 178° South 457 526 31,200 -2,164 Descending FlightAware ADS-B
Sun 11:35:43 AM 29.7639 -82.3676 178° South 449 517 30,000 -2,164 Descending FlightAware ADS-B
Sun 11:36:13 AM 29.7018 -82.3643 177° South 444 511 29,000 -2,063 Descending FlightAware ADS-B
Sun 11:36:47 AM 29.6353 -82.3609 178° South 434 499 27,800 -2,080 Descending FlightAware ADS-B
Sun 11:37:28 AM 29.5501 -82.3541 174° South 432 497 26,400 -1,421 Descending FlightAware ADS-B
Sun 11:38:03 AM 29.4802 -82.3457 174° South 434 499 26,000 -364 Descending FlightAware ADS-B
Sun 11:38:34 AM 29.4220 -82.3388 174° South 434 499 26,000 -1,014 Level FlightAware ADS-B
Sun 11:39:14 AM 29.3384 -82.3288 174° South 433 498 24,800 -2,167 Descending FlightAware ADS-B
Sun 11:39:46 AM 29.2975 -82.3240 174° South 431 496 23,400 -2,516 Descending FlightAware ADS-B
Sun 11:40:16 AM 29.2202 -82.3145 174° South 423 487 22,200 -3,158 Descending FlightAware ADS-B
Sun 11:41:02 AM 29.1252 -82.3034 174° South 420 483 19,400 -2,971 Descending FlightAware ADS-B
Sun 11:42:01 AM 29.0121 -82.2900 174° South 416 479 17,000 -2,400 Descending FlightAware ADS-B
Sun 11:42:47 AM 28.9388 -82.2813 174° South 412 474 15,200 -2,270 Descending FlightAware ADS-B
Sun 11:43:52 AM 28.8458 -82.2702 174° South 382 440 12,800 -836 Descending FlightAware ADS-B
Sun 11:45:32 AM 28.6500 -82.2500 180° South 296 341 12,900 -216 Climbing Tampa TRACON
Sun 11:45:43 AM 28.6380 -82.2561 179° South 303 349 12,400 -1,733 Descending FlightAware ADS-B
Sun 11:46:17 AM 28.5910 -82.2553 179° South 298 343 11,600 -1,224 Descending FlightAware ADS-B
Sun 11:46:32 AM 28.5667 -82.2500 180° South 299 344 11,400 -1,742 Descending Tampa TRACON
Sun 11:46:48 AM 28.5483 -82.2577 179° South 297 342 10,700 -1,953 Descending FlightAware ADS-B
Sun 11:47:15 AM 28.5204 -82.2840 241° Southwest 300 345 10,000 -818 Descending FlightAware ADS-B
Sun 11:47:32 AM 28.5167 -82.3167 230° Southwest 300 345 10,100  Climbing Tampa TRACON
Sun 11:48:26 AM 28.4833 -82.3833 240° Southwest 302 348 10,000 -211 Descending Tampa TRACON
Sun 11:49:26 AM 28.4500 -82.4667 246° West 300 345 9,700 -850 Descending Tampa TRACON
Sun 11:50:26 AM 28.4333 -82.5500 257° West 268 308 8,300 -1,750 Descending Tampa TRACON
Sun 11:51:00 AM 28.1428 -82.4000 180° South  Level FlightAware Approximate
Sun 11:51:26 AM 28.4333 -82.6500 270° West 278 320 6,200  Level Tampa TRACON
Sun 11:52:27 AM 28.3833 -82.7000 221° Southwest 230 265 4,800 -1,512 Descending Tampa TRACON
Sun 11:53:33 AM 28.3167 -82.7167 192° South 215 247 3,000 -857 Descending Tampa TRACON
Sun 11:54:33 AM 28.2667 -82.7000 164° South 185 213 3,000 -550 Level Tampa TRACON
Sun 11:55:33 AM 28.2167 -82.7000 180° South 182 209 1,900 -750 Descending Tampa TRACON
Sun 11:56:33 AM 28.1667 -82.6833 164° South 185 213 1,500 -190 Descending Tampa TRACON
Sun 11:57:39 AM 28.1167 -82.6833 180° South 186 214 1,500  Level Tampa TRACON
Sun 11:58:33 AM 28.0667 -82.6667 164° South 183 211 1,500  Level Tampa TRACON
Sun 11:59:39 AM 28.0167 -82.6667 180° South 185 213 1,500 -300 Level Tampa TRACON
Sun 12:00:33 PM 27.9667 -82.6833 196° South 189 217 900 -667 Descending Tampa TRACON
Sun 12:02:00 PM 27.9100 -82.6875 184° South  Level Estimated
Sun 12:09:00 PM 27.9100 -82.6875 North  Level Estimated
Sun 12:10:00 PM 27.9100 -82.6875 310° West  Level Estimated
Sun 12:11:00 PM 27.9100 -82.6875 310° West  Level Estimated

Login

Don't have an account? Register now (free) for customized features, flight alerts, and more!